createdAt,value
2017-11-03T00:00:27.948Z,0
2017-11-03T00:01:36.585Z,0
2017-11-03T00:02:45.287Z,0
2017-11-03T00:03:54.573Z,0
2017-11-03T00:05:03.561Z,0
2017-11-03T00:06:12.222Z,0
2017-11-03T00:07:21.522Z,0
2017-11-03T00:08:30.825Z,0
2017-11-03T00:09:39.474Z,0
2017-11-03T00:10:48.465Z,0
2017-11-03T00:11:57.167Z,0
2017-11-03T00:13:06.131Z,0
2017-11-03T00:14:14.788Z,0
2017-11-03T00:15:24.412Z,0
2017-11-03T00:16:33.065Z,0
2017-11-03T00:17:42.377Z,0
2017-11-03T00:18:51.384Z,0
2017-11-03T00:20:00.396Z,0
2017-11-03T00:21:09.693Z,0
2017-11-03T00:22:18.325Z,0
2017-11-03T00:23:26.969Z,0
2017-11-03T00:24:35.946Z,0
2017-11-03T00:25:44.926Z,0
2017-11-03T00:26:53.575Z,0
2017-11-03T00:28:02.553Z,0
2017-11-03T00:29:11.251Z,0
2017-11-03T00:30:20.231Z,0
2017-11-03T00:31:28.871Z,0
2017-11-03T00:32:37.521Z,0
2017-11-03T00:33:46.182Z,0
2017-11-03T00:34:54.954Z,0
2017-11-03T00:36:04.249Z,0
2017-11-03T00:37:13.211Z,0
2017-11-03T00:38:21.844Z,0
2017-11-03T00:39:31.162Z,0
2017-11-03T00:40:40.120Z,0
2017-11-03T00:41:49.094Z,0
2017-11-03T00:42:58.705Z,0
2017-11-03T00:44:08.031Z,0
2017-11-03T00:45:17.335Z,0
2017-11-03T00:46:26.046Z,0
2017-11-03T00:47:35.027Z,0
2017-11-03T00:48:44.016Z,0
2017-11-03T00:49:52.991Z,0
2017-11-03T00:51:01.956Z,0
2017-11-03T00:52:10.586Z,0
2017-11-03T00:53:19.906Z,0
2017-11-03T00:54:29.240Z,0
2017-11-03T00:55:38.212Z,0
2017-11-03T00:56:46.845Z,0
2017-11-03T00:57:56.142Z,0
2017-11-03T00:59:05.439Z,0
2017-11-03T01:00:14.755Z,0
2017-11-03T01:01:24.056Z,0
2017-11-03T01:02:33.027Z,0
2017-11-03T01:03:42.003Z,0
2017-11-03T01:04:50.974Z,0
2017-11-03T01:06:00.601Z,0
2017-11-03T01:07:09.576Z,0
2017-11-03T01:08:18.890Z,0
2017-11-03T01:09:27.525Z,0
2017-11-03T01:10:36.822Z,0
2017-11-03T01:11:46.127Z,0
2017-11-03T01:12:55.100Z,0
2017-11-03T01:14:04.078Z,0
2017-11-03T01:15:13.402Z,0
2017-11-03T01:16:22.696Z,0
2017-11-03T01:17:31.336Z,0
2017-11-03T01:18:39.981Z,0
2017-11-03T01:19:48.961Z,0
2017-11-03T01:20:58.263Z,0
2017-11-03T01:22:07.237Z,0
2017-11-03T01:23:16.196Z,0
2017-11-03T01:24:25.163Z,0
2017-11-03T01:25:34.192Z,0
2017-11-03T01:26:43.154Z,0
2017-11-03T01:27:52.471Z,0
2017-11-03T01:29:01.109Z,0
2017-11-03T01:30:10.084Z,0
2017-11-03T01:31:19.054Z,0
2017-11-03T01:32:28.449Z,0
2017-11-03T01:33:37.424Z,0
2017-11-03T01:34:46.088Z,0
2017-11-03T01:35:54.721Z,0
2017-11-03T01:37:03.680Z,0
2017-11-03T01:38:12.990Z,0
2017-11-03T01:39:21.999Z,0
2017-11-03T01:40:30.646Z,0
2017-11-03T01:41:39.669Z,0
2017-11-03T01:42:49.038Z,0
2017-11-03T01:43:58.683Z,0
2017-11-03T01:45:07.649Z,0
2017-11-03T01:46:16.293Z,0
2017-11-03T01:47:25.291Z,0
2017-11-03T01:48:34.610Z,0
2017-11-03T01:49:43.619Z,0
2017-11-03T01:50:52.582Z,0
2017-11-03T01:52:01.878Z,0
2017-11-03T01:53:10.877Z,0
2017-11-03T01:54:19.523Z,0
2017-11-03T01:55:28.827Z,0
2017-11-03T01:56:38.132Z,0
2017-11-03T01:57:46.806Z,0
2017-11-03T01:58:55.448Z,0
2017-11-03T02:00:05.104Z,0
2017-11-03T02:01:13.751Z,0
2017-11-03T02:02:22.716Z,0
2017-11-03T02:03:32.035Z,0
2017-11-03T02:04:41.689Z,0
2017-11-03T02:05:50.673Z,0
2017-11-03T02:06:59.663Z,0
2017-11-03T02:08:08.307Z,0
2017-11-03T02:09:17.286Z,0
2017-11-03T02:10:25.944Z,0
2017-11-03T02:11:34.959Z,0
2017-11-03T02:12:43.967Z,0
2017-11-03T02:13:52.608Z,0
2017-11-03T02:15:01.913Z,0
2017-11-03T02:16:10.563Z,0
2017-11-03T02:17:19.858Z,0
2017-11-03T02:18:28.819Z,0
2017-11-03T02:19:37.804Z,0
2017-11-03T02:20:46.791Z,0
2017-11-03T02:21:55.426Z,0
2017-11-03T02:23:04.723Z,0
2017-11-03T02:24:13.701Z,0
2017-11-03T02:25:22.993Z,0
2017-11-03T02:26:31.657Z,0
2017-11-03T02:27:40.289Z,0
2017-11-03T02:28:49.580Z,0
2017-11-03T02:29:58.947Z,0
2017-11-03T02:31:08.279Z,0
2017-11-03T02:32:17.267Z,0
2017-11-03T02:33:26.907Z,0
2017-11-03T02:34:36.530Z,0
2017-11-03T02:35:45.573Z,0
2017-11-03T02:36:54.885Z,0
2017-11-03T02:38:04.534Z,0
2017-11-03T02:39:14.154Z,0
2017-11-03T02:40:23.141Z,0
2017-11-03T02:41:31.781Z,0
2017-11-03T02:42:40.754Z,0
2017-11-03T02:43:49.407Z,0
2017-11-03T02:44:58.052Z,0
2017-11-03T02:46:07.035Z,0
2017-11-03T02:47:15.783Z,0
2017-11-03T02:48:24.763Z,0
2017-11-03T02:49:33.742Z,0
2017-11-03T02:50:43.027Z,0
2017-11-03T02:51:51.997Z,0
2017-11-03T02:53:01.405Z,0
2017-11-03T02:54:10.043Z,0
2017-11-03T02:55:18.751Z,0
2017-11-03T02:56:28.378Z,0
2017-11-03T02:57:37.011Z,0
2017-11-03T02:58:46.004Z,0
2017-11-03T02:59:55.317Z,0
2017-11-03T03:01:03.966Z,0
2017-11-03T03:02:12.923Z,0
2017-11-03T03:03:21.898Z,0
2017-11-03T03:04:30.863Z,0
2017-11-03T03:05:40.176Z,0
2017-11-03T03:06:49.500Z,0
2017-11-03T03:07:58.794Z,0
2017-11-03T03:09:07.782Z,0
2017-11-03T03:10:17.069Z,0
2017-11-03T03:11:26.045Z,0
2017-11-03T03:12:35.022Z,0
2017-11-03T03:13:44.671Z,0
2017-11-03T03:14:54.292Z,0
2017-11-03T03:16:03.937Z,0
2017-11-03T03:17:12.585Z,0
2017-11-03T03:18:21.547Z,0
2017-11-03T03:19:31.173Z,0
2017-11-03T03:20:40.150Z,0
2017-11-03T03:21:48.890Z,0
2017-11-03T03:22:57.860Z,0
2017-11-03T03:24:06.841Z,0
2017-11-03T03:25:15.806Z,0
2017-11-03T03:26:25.103Z,0
2017-11-03T03:27:34.410Z,0
2017-11-03T03:28:43.382Z,0
2017-11-03T03:29:52.035Z,0
2017-11-03T03:31:01.016Z,0
2017-11-03T03:32:10.325Z,0
2017-11-03T03:33:19.052Z,0
2017-11-03T03:34:28.026Z,0
2017-11-03T03:35:37.345Z,0
2017-11-03T03:36:46.632Z,0
2017-11-03T03:37:55.610Z,0
2017-11-03T03:39:04.569Z,0
2017-11-03T03:40:13.542Z,0
2017-11-03T03:41:22.845Z,0
2017-11-03T03:42:32.134Z,0
2017-11-03T03:43:41.106Z,0
2017-11-03T03:44:50.393Z,0
2017-11-03T03:45:59.691Z,0
2017-11-03T03:47:08.674Z,0
2017-11-03T03:48:17.635Z,0
2017-11-03T03:49:26.607Z,0
2017-11-03T03:50:35.931Z,0
2017-11-03T03:51:44.561Z,0
2017-11-03T03:52:53.524Z,0
2017-11-03T03:54:02.844Z,0
2017-11-03T03:55:12.126Z,0
2017-11-03T03:56:21.098Z,0
2017-11-03T03:57:30.084Z,0
2017-11-03T03:58:38.731Z,0
2017-11-03T03:59:48.036Z,0
2017-11-03T04:00:56.682Z,0
2017-11-03T04:02:05.417Z,0
2017-11-03T04:03:14.392Z,0
2017-11-03T04:04:23.678Z,0
2017-11-03T04:05:32.987Z,0
2017-11-03T04:06:41.956Z,0
2017-11-03T04:07:51.247Z,0
2017-11-03T04:08:59.895Z,0
2017-11-03T04:10:08.549Z,0
2017-11-03T04:11:17.853Z,0
2017-11-03T04:12:27.135Z,0
2017-11-03T04:13:35.805Z,0
2017-11-03T04:14:44.474Z,0
2017-11-03T04:15:53.449Z,0
2017-11-03T04:17:02.757Z,0
2017-11-03T04:18:11.731Z,0
2017-11-03T04:19:20.711Z,0
2017-11-03T04:20:31.012Z,0
2017-11-03T04:21:39.985Z,0
2017-11-03T04:22:48.975Z,0
2017-11-03T04:23:58.288Z,0
2017-11-03T04:25:07.255Z,0
2017-11-03T04:26:16.599Z,0
2017-11-03T04:27:25.576Z,0
2017-11-03T04:28:34.880Z,0
2017-11-03T04:29:44.185Z,0
2017-11-03T04:30:53.812Z,0
2017-11-03T04:32:02.804Z,0
2017-11-03T04:33:12.441Z,0
2017-11-03T04:34:21.737Z,0
2017-11-03T04:35:31.104Z,0
2017-11-03T04:36:40.410Z,0
2017-11-03T04:37:49.389Z,0
2017-11-03T04:38:58.707Z,0
2017-11-03T04:40:07.697Z,0
2017-11-03T04:41:17.017Z,0
2017-11-03T04:42:26.318Z,0
2017-11-03T04:43:35.278Z,0
2017-11-03T04:44:43.991Z,0
2017-11-03T04:45:53.617Z,0
2017-11-03T04:47:02.585Z,0
2017-11-03T04:48:11.555Z,0
2017-11-03T04:49:20.194Z,0
2017-11-03T04:50:29.179Z,0
2017-11-03T04:51:37.822Z,0
2017-11-03T04:52:46.797Z,0
2017-11-03T04:53:55.788Z,0
2017-11-03T04:55:04.445Z,0
2017-11-03T04:56:13.074Z,0
2017-11-03T04:57:22.065Z,0
2017-11-03T04:58:31.359Z,0
2017-11-03T04:59:40.039Z,0
2017-11-03T05:00:48.718Z,0
2017-11-03T05:01:58.022Z,0
2017-11-03T05:03:06.991Z,0
2017-11-03T05:04:15.971Z,0
2017-11-03T05:05:25.272Z,0
2017-11-03T05:06:34.889Z,0
2017-11-03T05:07:44.542Z,0
2017-11-03T05:08:53.845Z,0
2017-11-03T05:10:02.825Z,0
2017-11-03T05:11:12.125Z,0
2017-11-03T05:12:21.091Z,0
2017-11-03T05:13:30.721Z,0
2017-11-03T05:14:39.677Z,0
2017-11-03T05:15:49.304Z,0
2017-11-03T05:16:57.959Z,0
2017-11-03T05:18:06.932Z,0
2017-11-03T05:19:15.593Z,0
2017-11-03T05:20:24.911Z,0
2017-11-03T05:21:33.870Z,0
2017-11-03T05:22:42.836Z,0
2017-11-03T05:23:52.455Z,0
2017-11-03T05:25:01.415Z,0
2017-11-03T05:26:10.733Z,0
2017-11-03T05:27:19.708Z,0
2017-11-03T05:28:29.021Z,0
2017-11-03T05:29:37.668Z,0
2017-11-03T05:30:46.319Z,0
2017-11-03T05:31:55.603Z,0
2017-11-03T05:33:04.247Z,0
2017-11-03T05:34:13.639Z,0
2017-11-03T05:35:22.330Z,0
2017-11-03T05:36:31.626Z,0
2017-11-03T05:37:40.921Z,0
2017-11-03T05:38:49.573Z,0
2017-11-03T05:39:58.219Z,0
2017-11-03T05:41:07.185Z,0
2017-11-03T05:42:15.827Z,0
2017-11-03T05:43:25.135Z,0
2017-11-03T05:44:34.318Z,0
2017-11-03T05:45:42.955Z,0
2017-11-03T05:46:52.251Z,0
2017-11-03T05:48:01.222Z,0
2017-11-03T05:49:10.846Z,0
2017-11-03T05:50:19.815Z,0
2017-11-03T05:51:29.118Z,0
2017-11-03T05:52:38.085Z,0
2017-11-03T05:53:46.728Z,0
2017-11-03T05:54:55.374Z,0
2017-11-03T05:56:04.356Z,0
2017-11-03T05:57:13.051Z,0
2017-11-03T05:58:22.017Z,0
2017-11-03T05:59:31.324Z,0
2017-11-03T06:00:40.285Z,0
2017-11-03T06:01:49.245Z,0
2017-11-03T06:02:58.223Z,0
2017-11-03T06:04:07.201Z,0
2017-11-03T06:05:15.845Z,0
2017-11-03T06:06:24.807Z,0
2017-11-03T06:07:33.778Z,0
2017-11-03T06:08:42.762Z,0
2017-11-03T06:09:51.733Z,4
2017-11-03T06:11:00.380Z,0
2017-11-03T06:12:09.026Z,0
2017-11-03T06:13:17.662Z,4
2017-11-03T06:14:26.292Z,4
2017-11-03T06:15:35.265Z,8
2017-11-03T06:16:44.547Z,4
2017-11-03T06:17:53.541Z,4
2017-11-03T06:19:02.508Z,8
2017-11-03T06:20:12.126Z,8
2017-11-03T06:21:21.421Z,8
2017-11-03T06:22:30.400Z,12
2017-11-03T06:23:39.703Z,12
2017-11-03T06:24:49.012Z,12
2017-11-03T06:25:58.157Z,12
2017-11-03T06:27:07.793Z,16
2017-11-03T06:28:16.452Z,12
2017-11-03T06:29:25.800Z,16
2017-11-03T06:30:35.110Z,16
2017-11-03T06:31:44.424Z,20
2017-11-03T06:32:54.035Z,20
2017-11-03T06:34:03.333Z,24
2017-11-03T06:35:12.983Z,28
2017-11-03T06:36:22.615Z,28
2017-11-03T06:37:31.938Z,32
2017-11-03T06:38:40.620Z,36
2017-11-03T06:39:49.588Z,40
2017-11-03T06:40:58.569Z,44
2017-11-03T06:42:07.542Z,48
2017-11-03T06:43:16.849Z,48
2017-11-03T06:44:26.557Z,48
2017-11-03T06:45:35.915Z,48
2017-11-03T06:46:44.877Z,56
2017-11-03T06:47:53.872Z,60
2017-11-03T06:49:03.182Z,68
2017-11-03T06:50:11.821Z,72
2017-11-03T06:51:20.797Z,84
2017-11-03T06:52:29.429Z,80
2017-11-03T06:53:38.715Z,80
2017-11-03T06:54:48.019Z,84
2017-11-03T06:55:56.664Z,88
2017-11-03T06:57:05.294Z,92
2017-11-03T06:58:14.270Z,96
2017-11-03T06:59:23.241Z,100
2017-11-03T07:00:32.553Z,108
2017-11-03T07:01:41.858Z,120
2017-11-03T07:02:51.168Z,128
2017-11-03T07:04:00.454Z,136
2017-11-03T07:05:09.484Z,136
2017-11-03T07:06:18.799Z,128
2017-11-03T07:07:27.505Z,132
2017-11-03T07:08:36.790Z,136
2017-11-03T07:09:46.079Z,136
2017-11-03T07:10:54.728Z,136
2017-11-03T07:12:04.092Z,140
2017-11-03T07:13:13.715Z,140
2017-11-03T07:14:22.685Z,128
2017-11-03T07:15:31.988Z,132
2017-11-03T07:16:40.623Z,148
2017-11-03T07:17:49.591Z,168
2017-11-03T07:18:58.284Z,172
2017-11-03T07:20:07.896Z,180
2017-11-03T07:21:16.856Z,188
2017-11-03T07:22:25.818Z,188
2017-11-03T07:23:35.152Z,200
2017-11-03T07:24:43.807Z,212
2017-11-03T07:25:52.452Z,216
2017-11-03T07:27:01.738Z,204
2017-11-03T07:28:10.752Z,196
2017-11-03T07:29:19.389Z,204
2017-11-03T07:30:28.021Z,212
2017-11-03T07:31:36.989Z,224
2017-11-03T07:32:46.299Z,228
2017-11-03T07:33:54.958Z,220
2017-11-03T07:35:03.940Z,216
2017-11-03T07:36:12.577Z,212
2017-11-03T07:37:21.221Z,208
2017-11-03T07:38:30.523Z,192
2017-11-03T07:39:40.481Z,180
2017-11-03T07:40:49.877Z,172
2017-11-03T07:41:58.842Z,172
2017-11-03T07:43:08.141Z,168
2017-11-03T07:44:17.114Z,172
2017-11-03T07:45:25.758Z,176
2017-11-03T07:46:35.060Z,180
2017-11-03T07:47:44.026Z,180
2017-11-03T07:48:53.458Z,180
2017-11-03T07:50:02.123Z,168
2017-11-03T07:51:11.738Z,160
2017-11-03T07:52:20.481Z,160
2017-11-03T07:53:29.118Z,172
2017-11-03T07:54:38.102Z,184
2017-11-03T07:55:47.094Z,204
2017-11-03T07:56:56.409Z,208
2017-11-03T07:58:05.095Z,216
2017-11-03T07:59:14.393Z,244
2017-11-03T08:00:23.412Z,284
2017-11-03T08:01:32.060Z,320
2017-11-03T08:02:41.350Z,344
2017-11-03T08:03:50.780Z,356
2017-11-03T08:04:59.745Z,372
2017-11-03T08:06:08.727Z,320
2017-11-03T08:07:17.357Z,392
2017-11-03T08:08:26.333Z,420
2017-11-03T08:09:35.000Z,436
2017-11-03T08:10:43.962Z,436
2017-11-03T08:11:53.285Z,460
2017-11-03T08:13:02.271Z,476
2017-11-03T08:14:11.278Z,456
2017-11-03T08:15:20.701Z,432
2017-11-03T08:16:29.340Z,412
2017-11-03T08:17:38.680Z,416
2017-11-03T08:18:48.306Z,456
2017-11-03T08:19:57.934Z,500
2017-11-03T08:21:06.904Z,584
2017-11-03T08:22:16.220Z,668
2017-11-03T08:23:25.201Z,716
2017-11-03T08:24:34.203Z,756
2017-11-03T08:25:43.190Z,708
2017-11-03T08:26:51.837Z,660
2017-11-03T08:28:01.495Z,632
2017-11-03T08:29:11.149Z,668
2017-11-03T08:30:19.802Z,684
2017-11-03T08:31:29.796Z,668
2017-11-03T08:32:38.761Z,672
2017-11-03T08:33:47.441Z,776
2017-11-03T08:34:56.402Z,976
2017-11-03T08:36:05.404Z,1136
2017-11-03T08:37:14.393Z,1240
2017-11-03T08:38:24.061Z,1392
2017-11-03T08:39:33.072Z,1488
2017-11-03T08:40:42.088Z,1324
2017-11-03T08:41:51.415Z,1316
2017-11-03T08:43:00.769Z,1300
2017-11-03T08:44:10.412Z,1292
2017-11-03T08:45:19.388Z,1272
2017-11-03T08:46:28.043Z,1224
2017-11-03T08:47:37.016Z,1180
2017-11-03T08:48:46.003Z,1168
2017-11-03T08:49:55.097Z,1264
2017-11-03T08:51:03.755Z,1368
2017-11-03T08:52:12.756Z,1464
2017-11-03T08:53:21.394Z,1724
2017-11-03T08:54:31.035Z,1864
2017-11-03T08:55:40.016Z,1708
2017-11-03T08:56:49.309Z,1756
2017-11-03T08:57:58.291Z,1928
2017-11-03T08:59:06.951Z,1760
2017-11-03T09:00:15.926Z,1580
2017-11-03T09:01:24.912Z,1548
2017-11-03T09:02:33.928Z,1580
2017-11-03T09:03:42.907Z,1600
2017-11-03T09:04:51.579Z,1744
2017-11-03T09:06:00.570Z,1800
2017-11-03T09:07:09.874Z,1824
2017-11-03T09:08:19.487Z,1736
2017-11-03T09:09:28.457Z,1684
2017-11-03T09:10:37.759Z,1608
2017-11-03T09:11:46.787Z,1688
2017-11-03T09:12:55.770Z,1804
2017-11-03T09:14:04.758Z,1832
2017-11-03T09:15:13.771Z,1780
2017-11-03T09:16:23.423Z,1768
2017-11-03T09:17:32.082Z,1840
2017-11-03T09:18:41.096Z,1768
2017-11-03T09:19:50.799Z,1648
2017-11-03T09:20:59.474Z,1628
2017-11-03T09:22:08.797Z,1644
2017-11-03T09:23:18.135Z,1668
2017-11-03T09:24:27.419Z,1648
2017-11-03T09:25:36.742Z,1684
2017-11-03T09:26:45.782Z,1848
2017-11-03T09:27:55.100Z,2232
2017-11-03T09:29:04.392Z,2224
2017-11-03T09:30:13.822Z,1816
2017-11-03T09:31:22.489Z,1584
2017-11-03T09:32:31.470Z,1568
2017-11-03T09:33:40.117Z,1336
2017-11-03T09:34:49.092Z,1288
2017-11-03T09:35:58.495Z,1356
2017-11-03T09:37:07.819Z,1544
2017-11-03T09:38:17.146Z,1700
2017-11-03T09:39:26.475Z,1632
2017-11-03T09:40:35.178Z,1316
2017-11-03T09:41:43.889Z,1192
2017-11-03T09:42:52.873Z,1148
2017-11-03T09:44:02.509Z,1108
2017-11-03T09:45:11.498Z,1064
2017-11-03T09:46:20.830Z,1064
2017-11-03T09:47:30.155Z,1112
2017-11-03T09:48:38.822Z,1112
2017-11-03T09:49:47.476Z,1068
2017-11-03T09:50:56.467Z,1048
2017-11-03T09:52:05.486Z,1040
2017-11-03T09:53:14.474Z,1028
2017-11-03T09:54:23.501Z,1016
2017-11-03T09:55:32.827Z,996
2017-11-03T09:56:41.847Z,980
2017-11-03T09:57:51.478Z,972
2017-11-03T09:59:00.901Z,976
2017-11-03T10:00:10.232Z,972
2017-11-03T10:01:19.550Z,956
2017-11-03T10:02:29.536Z,940
2017-11-03T10:03:38.514Z,932
2017-11-03T10:04:47.492Z,924
2017-11-03T10:05:56.156Z,912
2017-11-03T10:07:04.820Z,900
2017-11-03T10:08:13.828Z,888
2017-11-03T10:09:23.494Z,880
2017-11-03T10:10:33.127Z,860
2017-11-03T10:11:42.790Z,840
2017-11-03T10:12:52.165Z,832
2017-11-03T10:14:01.460Z,832
2017-11-03T10:15:10.849Z,820
2017-11-03T10:16:19.539Z,816
2017-11-03T10:17:28.623Z,808
2017-11-03T10:18:38.115Z,804
2017-11-03T10:19:46.773Z,796
2017-11-03T10:20:56.137Z,788
2017-11-03T10:22:05.159Z,788
2017-11-03T10:23:14.244Z,784
2017-11-03T10:24:22.923Z,780
2017-11-03T10:25:32.251Z,776
2017-11-03T10:26:41.246Z,776
2017-11-03T10:27:50.902Z,772
2017-11-03T10:28:59.870Z,768
2017-11-03T10:30:09.503Z,768
2017-11-03T10:31:18.808Z,764
2017-11-03T10:32:27.504Z,760
2017-11-03T10:33:36.814Z,760
2017-11-03T10:34:45.804Z,760
2017-11-03T10:35:55.146Z,760
2017-11-03T10:37:04.136Z,764
2017-11-03T10:38:14.194Z,764
2017-11-03T10:39:23.183Z,756
2017-11-03T10:40:32.700Z,756
2017-11-03T10:41:42.026Z,756
2017-11-03T10:42:51.128Z,752
2017-11-03T10:43:59.889Z,748
2017-11-03T10:45:08.883Z,740
2017-11-03T10:46:17.871Z,744
2017-11-03T10:47:27.509Z,740
2017-11-03T10:48:36.486Z,736
2017-11-03T10:49:45.806Z,732
2017-11-03T10:50:54.792Z,728
2017-11-03T10:52:03.796Z,728
2017-11-03T10:53:12.786Z,724
2017-11-03T10:54:21.441Z,720
2017-11-03T10:55:30.423Z,712
2017-11-03T10:56:39.728Z,712
2017-11-03T10:57:49.043Z,708
2017-11-03T10:58:58.368Z,708
2017-11-03T11:00:07.338Z,708
2017-11-03T11:01:16.658Z,708
2017-11-03T11:02:25.661Z,708
2017-11-03T11:03:35.025Z,708
2017-11-03T11:04:44.022Z,708
2017-11-03T11:05:53.002Z,704
2017-11-03T11:07:02.342Z,700
2017-11-03T11:08:11.011Z,700
2017-11-03T11:09:19.995Z,700
2017-11-03T11:10:28.971Z,696
2017-11-03T11:11:38.632Z,704
2017-11-03T11:12:48.314Z,704
2017-11-03T11:13:57.315Z,696
2017-11-03T11:15:06.633Z,700
2017-11-03T11:16:16.587Z,696
2017-11-03T11:17:25.237Z,696
2017-11-03T11:18:34.536Z,692
2017-11-03T11:19:43.880Z,684
2017-11-03T11:20:52.897Z,684
2017-11-03T11:22:01.911Z,688
2017-11-03T11:23:10.900Z,684
2017-11-03T11:24:20.215Z,680
2017-11-03T11:25:29.187Z,672
2017-11-03T11:26:37.836Z,672
2017-11-03T11:27:46.845Z,672
2017-11-03T11:28:56.180Z,676
2017-11-03T11:30:05.176Z,672
2017-11-03T11:31:14.502Z,672
2017-11-03T11:32:23.817Z,668
2017-11-03T11:33:32.467Z,668
2017-11-03T11:34:41.438Z,668
2017-11-03T11:35:50.430Z,668
2017-11-03T11:36:59.441Z,668
2017-11-03T11:38:09.153Z,668
2017-11-03T11:39:18.143Z,664
2017-11-03T11:40:27.451Z,660
2017-11-03T11:41:36.431Z,656
2017-11-03T11:42:45.398Z,656
2017-11-03T11:43:54.381Z,656
2017-11-03T11:45:03.376Z,660
2017-11-03T11:46:13.023Z,660
2017-11-03T11:47:22.672Z,656
2017-11-03T11:48:31.661Z,660
2017-11-03T11:49:40.985Z,664
2017-11-03T11:50:50.299Z,664
2017-11-03T11:51:59.302Z,664
2017-11-03T11:53:08.393Z,660
2017-11-03T11:54:17.399Z,656
2017-11-03T11:55:27.047Z,652
2017-11-03T11:56:36.390Z,652
2017-11-03T11:57:45.732Z,652
2017-11-03T11:58:55.078Z,652
2017-11-03T12:00:04.398Z,652
2017-11-03T12:01:13.386Z,652
2017-11-03T12:02:22.378Z,652
2017-11-03T12:03:31.420Z,652
2017-11-03T12:04:40.407Z,652
2017-11-03T12:05:49.401Z,648
2017-11-03T12:06:58.043Z,644
2017-11-03T12:08:07.014Z,640
2017-11-03T12:09:16.633Z,640
2017-11-03T12:10:25.279Z,636
2017-11-03T12:11:34.640Z,620
2017-11-03T12:12:43.642Z,624
2017-11-03T12:13:52.973Z,624
2017-11-03T12:15:01.639Z,624
2017-11-03T12:16:10.641Z,616
2017-11-03T12:17:19.614Z,620
2017-11-03T12:18:28.272Z,616
2017-11-03T12:19:37.291Z,616
2017-11-03T12:20:46.934Z,616
2017-11-03T12:21:55.585Z,616
2017-11-03T12:23:04.589Z,612
2017-11-03T12:24:13.587Z,576
2017-11-03T12:25:22.905Z,600
2017-11-03T12:26:31.889Z,604
2017-11-03T12:27:41.539Z,592
2017-11-03T12:28:50.532Z,576
2017-11-03T12:29:59.513Z,568
2017-11-03T12:31:08.536Z,580
2017-11-03T12:32:17.186Z,580
2017-11-03T12:33:26.186Z,580
2017-11-03T12:34:35.506Z,576
2017-11-03T12:35:44.162Z,584
2017-11-03T12:36:53.212Z,584
2017-11-03T12:38:01.892Z,588
2017-11-03T12:39:11.193Z,560
2017-11-03T12:40:20.176Z,572
2017-11-03T12:41:29.166Z,580
2017-11-03T12:42:39.457Z,556
2017-11-03T12:43:48.445Z,568
2017-11-03T12:44:57.410Z,552
2017-11-03T12:46:06.736Z,532
2017-11-03T12:47:15.731Z,532
2017-11-03T12:48:24.464Z,528
2017-11-03T12:49:33.779Z,528
2017-11-03T12:50:42.917Z,520
2017-11-03T12:51:52.234Z,512
2017-11-03T12:53:01.204Z,520
2017-11-03T12:54:10.191Z,556
2017-11-03T12:55:19.170Z,524
2017-11-03T12:56:28.156Z,512
2017-11-03T12:57:37.124Z,512
2017-11-03T12:58:45.818Z,536
2017-11-03T12:59:55.139Z,608
2017-11-03T13:01:04.447Z,672
2017-11-03T13:02:13.110Z,760
2017-11-03T13:03:22.107Z,804
2017-11-03T13:04:31.577Z,824
2017-11-03T13:05:41.256Z,924
2017-11-03T13:06:50.581Z,952
2017-11-03T13:07:59.947Z,920
2017-11-03T13:09:09.617Z,872
2017-11-03T13:10:18.597Z,872
2017-11-03T13:11:27.242Z,892
2017-11-03T13:12:36.242Z,868
2017-11-03T13:13:44.919Z,728
2017-11-03T13:14:53.926Z,592
2017-11-03T13:16:02.924Z,544
2017-11-03T13:17:11.578Z,528
2017-11-03T13:18:20.576Z,504
2017-11-03T13:19:29.558Z,516
2017-11-03T13:20:38.585Z,516
2017-11-03T13:21:47.252Z,504
2017-11-03T13:22:56.595Z,492
2017-11-03T13:24:05.918Z,492
2017-11-03T13:25:15.238Z,508
2017-11-03T13:26:24.193Z,528
2017-11-03T13:27:33.275Z,540
2017-11-03T13:28:42.591Z,552
2017-11-03T13:29:51.252Z,544
2017-11-03T13:31:01.431Z,516
2017-11-03T13:32:10.732Z,496
2017-11-03T13:33:19.386Z,480
2017-11-03T13:34:28.043Z,452
2017-11-03T13:35:37.042Z,432
2017-11-03T13:36:45.697Z,408
2017-11-03T13:37:54.673Z,404
2017-11-03T13:39:03.994Z,408
2017-11-03T13:40:13.301Z,400
2017-11-03T13:41:22.281Z,388
2017-11-03T13:42:31.261Z,380
2017-11-03T13:43:40.571Z,372
2017-11-03T13:44:49.561Z,376
2017-11-03T13:45:58.868Z,388
2017-11-03T13:47:08.211Z,392
2017-11-03T13:48:17.543Z,388
2017-11-03T13:49:26.183Z,380
2017-11-03T13:50:35.836Z,376
2017-11-03T13:51:44.513Z,388
2017-11-03T13:52:53.830Z,412
2017-11-03T13:54:02.831Z,432
2017-11-03T13:55:11.796Z,436
2017-11-03T13:56:20.461Z,428
2017-11-03T13:57:29.129Z,440
2017-11-03T13:58:38.112Z,440
2017-11-03T13:59:48.141Z,436
2017-11-03T14:00:57.338Z,408
2017-11-03T14:02:06.370Z,380
2017-11-03T14:03:15.687Z,356
2017-11-03T14:04:24.697Z,344
2017-11-03T14:05:33.696Z,332
2017-11-03T14:06:42.685Z,316
2017-11-03T14:07:51.664Z,304
2017-11-03T14:09:00.663Z,296
2017-11-03T14:10:09.965Z,292
2017-11-03T14:11:19.596Z,284
2017-11-03T14:12:28.904Z,284
2017-11-03T14:13:38.208Z,284
2017-11-03T14:14:47.188Z,276
2017-11-03T14:15:56.840Z,268
2017-11-03T14:17:06.148Z,264
2017-11-03T14:18:15.121Z,260
2017-11-03T14:19:24.098Z,248
2017-11-03T14:20:33.096Z,248
2017-11-03T14:21:42.418Z,252
2017-11-03T14:22:51.397Z,248
2017-11-03T14:24:00.071Z,252
2017-11-03T14:25:09.745Z,248
2017-11-03T14:26:18.737Z,248
2017-11-03T14:27:27.724Z,252
2017-11-03T14:28:37.351Z,260
2017-11-03T14:29:46.012Z,260
2017-11-03T14:30:54.694Z,256
2017-11-03T14:32:04.049Z,260
2017-11-03T14:33:13.366Z,268
2017-11-03T14:34:22.148Z,260
2017-11-03T14:35:31.617Z,260
2017-11-03T14:36:40.620Z,264
2017-11-03T14:37:49.270Z,268
2017-11-03T14:38:58.562Z,280
2017-11-03T14:40:07.553Z,280
2017-11-03T14:41:16.541Z,284
2017-11-03T14:42:25.240Z,284
2017-11-03T14:43:34.578Z,284
2017-11-03T14:44:43.902Z,292
2017-11-03T14:45:52.562Z,288
2017-11-03T14:47:01.224Z,268
2017-11-03T14:48:10.557Z,248
2017-11-03T14:49:19.206Z,232
2017-11-03T14:50:28.206Z,228
2017-11-03T14:51:37.620Z,224
2017-11-03T14:52:46.261Z,224
2017-11-03T14:53:55.587Z,228
2017-11-03T14:55:04.910Z,228
2017-11-03T14:56:14.228Z,228
2017-11-03T14:57:23.583Z,220
2017-11-03T14:58:32.271Z,212
2017-11-03T14:59:40.932Z,200
2017-11-03T15:00:49.922Z,192
2017-11-03T15:01:58.909Z,188
2017-11-03T15:03:07.884Z,188
2017-11-03T15:04:16.865Z,180
2017-11-03T15:05:26.196Z,176
2017-11-03T15:06:35.844Z,172
2017-11-03T15:07:44.835Z,168
2017-11-03T15:08:53.819Z,164
2017-11-03T15:10:02.814Z,164
2017-11-03T15:11:11.792Z,156
2017-11-03T15:12:20.464Z,156
2017-11-03T15:13:29.132Z,156
2017-11-03T15:14:37.814Z,156
2017-11-03T15:15:46.811Z,156
2017-11-03T15:16:55.820Z,148
2017-11-03T15:18:04.899Z,140
2017-11-03T15:19:14.226Z,140
2017-11-03T15:20:23.860Z,136
2017-11-03T15:21:32.892Z,132
2017-11-03T15:22:41.851Z,128
2017-11-03T15:23:50.906Z,116
2017-11-03T15:25:00.234Z,108
2017-11-03T15:26:09.316Z,100
2017-11-03T15:27:18.043Z,96
2017-11-03T15:28:27.031Z,88
2017-11-03T15:29:36.022Z,84
2017-11-03T15:30:45.345Z,80
2017-11-03T15:31:54.699Z,76
2017-11-03T15:33:03.359Z,72
2017-11-03T15:34:12.012Z,68
2017-11-03T15:35:20.679Z,64
2017-11-03T15:36:29.719Z,64
2017-11-03T15:37:39.397Z,60
2017-11-03T15:38:48.452Z,60
2017-11-03T15:39:57.655Z,60
2017-11-03T15:41:06.740Z,56
2017-11-03T15:42:16.367Z,56
2017-11-03T15:43:25.345Z,60
2017-11-03T15:44:34.332Z,56
2017-11-03T15:45:43.294Z,52
2017-11-03T15:46:51.996Z,52
2017-11-03T15:48:00.670Z,52
2017-11-03T15:49:10.081Z,48
2017-11-03T15:50:19.722Z,48
2017-11-03T15:51:29.396Z,48
2017-11-03T15:52:38.708Z,44
2017-11-03T15:53:47.408Z,40
2017-11-03T15:54:56.162Z,40
2017-11-03T15:56:05.150Z,36
2017-11-03T15:57:13.812Z,32
2017-11-03T15:58:24.105Z,32
2017-11-03T15:59:33.124Z,28
2017-11-03T16:00:42.763Z,24
2017-11-03T16:01:51.444Z,20
2017-11-03T16:03:00.105Z,20
2017-11-03T16:04:08.787Z,16
2017-11-03T16:05:17.455Z,16
2017-11-03T16:06:26.469Z,12
2017-11-03T16:07:35.108Z,16
2017-11-03T16:08:44.098Z,12
2017-11-03T16:09:53.086Z,8
2017-11-03T16:11:01.745Z,8
2017-11-03T16:12:11.107Z,8
2017-11-03T16:13:20.421Z,4
2017-11-03T16:14:29.439Z,8
2017-11-03T16:15:38.435Z,4
2017-11-03T16:16:48.431Z,4
2017-11-03T16:17:57.077Z,4